sensor_id;sensor_type;location;lat;lon;timestamp;pressure;altitude;pressure_sealevel;temperature;humidity
39449;BME280;25151;45.566;9.382;2022-10-16T00:01:41;100153.50;;;22.45;60.76
39449;BME280;25151;45.566;9.382;2022-10-16T00:04:42;100163.84;;;22.48;60.96
39449;BME280;25151;45.566;9.382;2022-10-16T00:07:43;100155.53;;;22.44;60.98
39449;BME280;25151;45.566;9.382;2022-10-16T00:10:43;100163.53;;;22.46;61.13
39449;BME280;25151;45.566;9.382;2022-10-16T00:13:45;100161.59;;;22.43;60.87
39449;BME280;25151;45.566;9.382;2022-10-16T00:16:46;100162.84;;;22.42;60.86
39449;BME280;25151;45.566;9.382;2022-10-16T00:19:47;100166.31;;;22.46;61.10
39449;BME280;25151;45.566;9.382;2022-10-16T00:22:48;100158.47;;;22.41;60.84
39449;BME280;25151;45.566;9.382;2022-10-16T00:25:56;100166.09;;;22.40;60.79
39449;BME280;25151;45.566;9.382;2022-10-16T00:28:57;100168.00;;;22.43;60.87
39449;BME280;25151;45.566;9.382;2022-10-16T00:31:58;100164.53;;;22.39;61.10
39449;BME280;25151;45.566;9.382;2022-10-16T00:34:59;100159.38;;;22.38;60.93
39449;BME280;25151;45.566;9.382;2022-10-16T00:37:59;100163.28;;;22.40;60.91
39449;BME280;25151;45.566;9.382;2022-10-16T00:41:00;100157.66;;;22.40;60.93
39449;BME280;25151;45.566;9.382;2022-10-16T00:44:40;100165.00;;;22.38;60.69
39449;BME280;25151;45.566;9.382;2022-10-16T00:47:31;100172.50;;;22.41;60.94
39449;BME280;25151;45.566;9.382;2022-10-16T00:50:33;100159.38;;;22.38;61.19
39449;BME280;25151;45.566;9.382;2022-10-16T00:53:35;100165.00;;;22.38;60.82
39449;BME280;25151;45.566;9.382;2022-10-16T00:56:35;100163.88;;;22.35;60.88
39449;BME280;25151;45.566;9.382;2022-10-16T00:59:38;100161.06;;;22.35;60.83
39449;BME280;25151;45.566;9.382;2022-10-16T01:02:40;100164.19;;;22.37;61.21
39449;BME280;25151;45.566;9.382;2022-10-16T01:05:53;100155.09;;;22.33;60.99
39449;BME280;25151;45.566;9.382;2022-10-16T01:09:17;100167.00;;;22.37;60.91
39449;BME280;25151;45.566;9.382;2022-10-16T01:16:16;100164.19;;;22.37;60.82
39449;BME280;25151;45.566;9.382;2022-10-16T01:32:37;100144.44;;;22.28;61.02
39449;BME280;25151;45.566;9.382;2022-10-16T01:35:42;100155.69;;;22.28;60.65
39449;BME280;25151;45.566;9.382;2022-10-16T01:38:47;100157.25;;;22.29;60.87
39449;BME280;25151;45.566;9.382;2022-10-16T01:41:56;100154.44;;;22.29;60.86
39449;BME280;25151;45.566;9.382;2022-10-16T01:45:00;100155.69;;;22.28;60.92
39449;BME280;25151;45.566;9.382;2022-10-16T01:48:05;100156.94;;;22.27;60.63
39449;BME280;25151;45.566;9.382;2022-10-16T01:51:10;100140.53;;;22.25;60.83
39449;BME280;25151;45.566;9.382;2022-10-16T01:54:14;100148.50;;;22.27;60.71
39449;BME280;25151;45.566;9.382;2022-10-16T01:57:16;100146.47;;;22.27;60.60
39449;BME280;25151;45.566;9.382;2022-10-16T02:00:20;100144.13;;;22.26;60.68
39449;BME280;25151;45.566;9.382;2022-10-16T02:03:22;100154.78;;;22.31;60.88
39449;BME280;25151;45.566;9.382;2022-10-16T02:06:23;100148.50;;;22.27;60.45
39449;BME280;25151;45.566;9.382;2022-10-16T02:09:25;100154.44;;;22.29;60.72
39449;BME280;25151;45.566;9.382;2022-10-16T02:12:28;100155.38;;;22.26;60.79
39449;BME280;25151;45.566;9.382;2022-10-16T02:15:32;100165.69;;;22.29;60.95
39449;BME280;25151;45.566;9.382;2022-10-16T02:18:33;100168.63;;;22.25;60.93
39449;BME280;25151;45.566;9.382;2022-10-16T02:21:44;100160.63;;;22.24;60.73
39449;BME280;25151;45.566;9.382;2022-10-16T02:24:56;100160.31;;;22.22;61.01
39449;BME280;25151;45.566;9.382;2022-10-16T02:28:03;100161.53;;;22.21;60.80
39449;BME280;25151;45.566;9.382;2022-10-16T02:31:09;100173.00;;;22.26;60.74
39449;BME280;25151;45.566;9.382;2022-10-16T02:34:12;100169.06;;;22.24;61.02
39449;BME280;25151;45.566;9.382;2022-10-16T02:37:14;100169.41;;;22.26;60.78
39449;BME280;25151;45.566;9.382;2022-10-16T02:40:17;100169.97;;;22.21;60.99
39449;BME280;25151;45.566;9.382;2022-10-16T02:43:18;100173.13;;;22.23;60.92
39449;BME280;25151;45.566;9.382;2022-10-16T02:46:19;100177.50;;;22.24;60.87
39449;BME280;25151;45.566;9.382;2022-10-16T02:49:20;100168.75;;;22.22;60.80
39449;BME280;25151;45.566;9.382;2022-10-16T02:52:20;100179.97;;;22.22;60.92
39449;BME280;25151;45.566;9.382;2022-10-16T02:55:21;100168.09;;;22.18;60.96
39449;BME280;25151;45.566;9.382;2022-10-16T02:58:21;100185.59;;;22.22;61.02
39449;BME280;25151;45.566;9.382;2022-10-16T03:01:23;100183.22;;;22.20;61.07
39449;BME280;25151;45.566;9.382;2022-10-16T03:04:24;100190.44;;;22.21;60.72
39449;BME280;25151;45.566;9.382;2022-10-16T03:07:24;100176.16;;;22.16;60.99
39449;BME280;25151;45.566;9.382;2022-10-16T03:10:25;100183.22;;;22.20;60.96
39449;BME280;25151;45.566;9.382;2022-10-16T03:13:25;100178.97;;;22.16;60.91
39449;BME280;25151;45.566;9.382;2022-10-16T03:16:26;100190.09;;;22.19;60.76
39449;BME280;25151;45.566;9.382;2022-10-16T03:19:28;100190.56;;;22.18;60.75
39449;BME280;25151;45.566;9.382;2022-10-16T03:22:29;100196.94;;;22.18;60.97
39449;BME280;25151;45.566;9.382;2022-10-16T03:25:30;100197.28;;;22.20;60.70
39449;BME280;25151;45.566;9.382;2022-10-16T03:28:30;100188.97;;;22.17;60.80
39449;BME280;25151;45.566;9.382;2022-10-16T03:31:31;100192.22;;;22.15;60.73
39449;BME280;25151;45.566;9.382;2022-10-16T03:34:31;100206.47;;;22.21;60.81
39449;BME280;25151;45.566;9.382;2022-10-16T03:37:32;100201.78;;;22.18;60.58
39449;BME280;25151;45.566;9.382;2022-10-16T03:40:33;100204.25;;;22.16;60.88
39449;BME280;25151;45.566;9.382;2022-10-16T03:43:33;100199.88;;;22.15;60.80
39449;BME280;25151;45.566;9.382;2022-10-16T03:46:34;100201.78;;;22.18;60.90
39449;BME280;25151;45.566;9.382;2022-10-16T03:49:35;100202.22;;;22.16;60.70
39449;BME280;25151;45.566;9.382;2022-10-16T03:52:35;100204.34;;;22.12;60.79
39449;BME280;25151;45.566;9.382;2022-10-16T03:55:36;100211.09;;;22.15;60.83
39449;BME280;25151;45.566;9.382;2022-10-16T03:58:37;100214.59;;;22.19;60.78
39449;BME280;25151;45.566;9.382;2022-10-16T04:01:37;100209.88;;;22.16;60.79
39449;BME280;25151;45.566;9.382;2022-10-16T04:04:38;100209.88;;;22.16;61.02
39449;BME280;25151;45.566;9.382;2022-10-16T04:07:38;100210.72;;;22.13;60.78
39449;BME280;25151;45.566;9.382;2022-10-16T04:10:39;100225.94;;;22.15;60.84
39449;BME280;25151;45.566;9.382;2022-10-16T04:13:40;100223.13;;;22.15;60.87
39449;BME280;25151;45.566;9.382;2022-10-16T04:16:41;100221.88;;;22.16;60.83
39449;BME280;25151;45.566;9.382;2022-10-16T04:19:42;100239.50;;;22.17;60.83
39449;BME280;25151;45.566;9.382;2022-10-16T04:22:43;100233.19;;;22.13;60.67
39449;BME280;25151;45.566;9.382;2022-10-16T04:25:44;100239.97;;;22.15;61.04
39449;BME280;25151;45.566;9.382;2022-10-16T04:28:44;100241.63;;;22.13;60.95
39449;BME280;25151;45.566;9.382;2022-10-16T04:31:45;100235.22;;;22.12;60.79
39449;BME280;25151;45.566;9.382;2022-10-16T04:34:45;100236.47;;;22.11;60.62
39449;BME280;25151;45.566;9.382;2022-10-16T04:37:46;100232.53;;;22.08;60.83
39449;BME280;25151;45.566;9.382;2022-10-16T04:40:47;100236.94;;;22.09;61.04
39449;BME280;25151;45.566;9.382;2022-10-16T04:43:47;100239.72;;;22.09;60.73
39449;BME280;25151;45.566;9.382;2022-10-16T04:46:50;100236.94;;;22.09;60.89
39449;BME280;25151;45.566;9.382;2022-10-16T04:49:52;100238.50;;;22.10;60.73
39449;BME280;25151;45.566;9.382;2022-10-16T04:52:52;100241.31;;;22.10;60.59
39449;BME280;25151;45.566;9.382;2022-10-16T04:55:53;100237.25;;;22.12;60.79
39449;BME280;25151;45.566;9.382;2022-10-16T04:58:54;100242.09;;;22.11;60.80
39449;BME280;25151;45.566;9.382;2022-10-16T05:01:54;100234.91;;;22.10;60.65
39449;BME280;25151;45.566;9.382;2022-10-16T05:04:55;100244.69;;;22.05;60.79
39449;BME280;25151;45.566;9.382;2022-10-16T05:07:55;100245.34;;;22.09;60.81
39449;BME280;25151;45.566;9.382;2022-10-16T05:10:56;100252.53;;;22.10;60.73
39449;BME280;25151;45.566;9.382;2022-10-16T05:13:57;100253.31;;;22.11;60.67
39449;BME280;25151;45.566;9.382;2022-10-16T05:16:59;100255.66;;;22.13;60.62
39449;BME280;25151;45.566;9.382;2022-10-16T05:20:00;100243.75;;;22.08;60.89
39449;BME280;25151;45.566;9.382;2022-10-16T05:23:01;100241.41;;;22.07;60.94
39449;BME280;25151;45.566;9.382;2022-10-16T05:26:01;100243.75;;;22.08;60.70
39449;BME280;25151;45.566;9.382;2022-10-16T05:29:03;100240.63;;;22.06;61.15
39449;BME280;25151;45.566;9.382;2022-10-16T05:32:03;100246.25;;;22.06;60.67
39449;BME280;25151;45.566;9.382;2022-10-16T05:35:04;100243.09;;;22.04;60.77
39449;BME280;25151;45.566;9.382;2022-10-16T05:38:05;100241.41;;;22.07;61.00
39449;BME280;25151;45.566;9.382;2022-10-16T05:41:06;100247.81;;;22.07;60.78
39449;BME280;25151;45.566;9.382;2022-10-16T05:44:06;100248.69;;;22.04;60.71
39449;BME280;25151;45.566;9.382;2022-10-16T05:47:07;100267.81;;;22.09;60.75
39449;BME280;25151;45.566;9.382;2022-10-16T05:50:08;100260.97;;;22.10;60.77
39449;BME280;25151;45.566;9.382;2022-10-16T05:53:09;100266.91;;;22.13;60.69
39449;BME280;25151;45.566;9.382;2022-10-16T05:56:11;100282.09;;;22.15;60.83
39449;BME280;25151;45.566;9.382;2022-10-16T05:59:12;100283.66;;;22.16;60.77
39449;BME280;25151;45.566;9.382;2022-10-16T06:02:13;100290.06;;;22.17;60.90
39449;BME280;25151;45.566;9.382;2022-10-16T06:05:14;100297.28;;;22.18;60.68
39449;BME280;25151;45.566;9.382;2022-10-16T06:08:15;100288.41;;;22.19;61.10
39449;BME280;25151;45.566;9.382;2022-10-16T06:11:18;100297.19;;;22.21;60.79
39449;BME280;25151;45.566;9.382;2022-10-16T06:14:19;100303.69;;;22.18;60.98
39449;BME280;25151;45.566;9.382;2022-10-16T06:17:20;100305.25;;;22.19;60.89
39449;BME280;25151;45.566;9.382;2022-10-16T06:20:21;100308.84;;;22.20;61.00
39449;BME280;25151;45.566;9.382;2022-10-16T06:23:22;100314.03;;;22.21;61.25
39449;BME280;25151;45.566;9.382;2022-10-16T06:26:26;100312.91;;;22.19;60.76
39449;BME280;25151;45.566;9.382;2022-10-16T06:29:27;100323.25;;;22.22;61.20
39449;BME280;25151;45.566;9.382;2022-10-16T06:32:28;100330.88;;;22.21;61.25
39449;BME280;25151;45.566;9.382;2022-10-16T06:35:29;100324.44;;;22.21;61.07
39449;BME280;25151;45.566;9.382;2022-10-16T06:38:30;100337.38;;;22.18;61.28
39449;BME280;25151;45.566;9.382;2022-10-16T06:41:31;100339.75;;;22.20;61.01
39449;BME280;25151;45.566;9.382;2022-10-16T06:44:32;100344.13;;;22.21;61.17
39449;BME280;25151;45.566;9.382;2022-10-16T06:47:33;100343.00;;;22.18;61.34
39449;BME280;25151;45.566;9.382;2022-10-16T06:50:34;100349.72;;;22.21;61.19
39449;BME280;25151;45.566;9.382;2022-10-16T06:53:36;100356.59;;;22.20;61.11
39449;BME280;25151;45.566;9.382;2022-10-16T06:56:37;100349.41;;;22.19;61.15
39449;BME280;25151;45.566;9.382;2022-10-16T06:59:38;100365.38;;;22.22;61.02
39449;BME280;25151;45.566;9.382;2022-10-16T07:02:40;100368.63;;;22.20;61.03
39449;BME280;25151;45.566;9.382;2022-10-16T07:05:42;100367.41;;;22.21;60.98
39449;BME280;25151;45.566;9.382;2022-10-16T07:08:45;100370.63;;;22.20;61.30
39449;BME280;25151;45.566;9.382;2022-10-16T07:11:46;100379.41;;;22.22;61.34
39449;BME280;25151;45.566;9.382;2022-10-16T07:14:47;100382.22;;;22.22;60.84
39449;BME280;25151;45.566;9.382;2022-10-16T07:17:48;100389.41;;;22.23;61.27
39449;BME280;25151;45.566;9.382;2022-10-16T07:20:48;100385.38;;;22.24;61.24
39449;BME280;25151;45.566;9.382;2022-10-16T07:23:53;100396.94;;;22.26;60.78
39449;BME280;25151;45.566;9.382;2022-10-16T07:26:56;100388.53;;;22.26;61.15
39449;BME280;25151;45.566;9.382;2022-10-16T07:29:57;100400.88;;;22.28;61.09
39449;BME280;25151;45.566;9.382;2022-10-16T07:32:59;100402.91;;;22.28;61.01
39449;BME280;25151;45.566;9.382;2022-10-16T07:36:00;100401.66;;;22.29;60.87
39449;BME280;25151;45.566;9.382;2022-10-16T07:39:00;100404.47;;;22.29;60.98
39449;BME280;25151;45.566;9.382;2022-10-16T07:42:01;100409.19;;;22.32;60.72
39449;BME280;25151;45.566;9.382;2022-10-16T07:45:02;100418.41;;;22.32;61.10
39449;BME280;25151;45.566;9.382;2022-10-16T07:48:03;100418.41;;;22.32;60.99
39449;BME280;25151;45.566;9.382;2022-10-16T07:51:05;100421.69;;;22.31;61.26
39449;BME280;25151;45.566;9.382;2022-10-16T07:54:08;100425.28;;;22.31;61.00
39449;BME280;25151;45.566;9.382;2022-10-16T07:57:09;100424.47;;;22.31;60.92
39449;BME280;25151;45.566;9.382;2022-10-16T08:00:10;100430.44;;;22.33;61.19
39449;BME280;25151;45.566;9.382;2022-10-16T08:03:13;100434.16;;;22.30;60.66
39449;BME280;25151;45.566;9.382;2022-10-16T08:06:16;100433.25;;;22.33;61.14
39449;BME280;25151;45.566;9.382;2022-10-16T08:09:17;100440.47;;;22.34;60.93
39449;BME280;25151;45.566;9.382;2022-10-16T08:12:18;100428.53;;;22.30;61.14
39449;BME280;25151;45.566;9.382;2022-10-16T08:15:20;100438.84;;;22.33;60.76
39449;BME280;25151;45.566;9.382;2022-10-16T08:18:21;100438.84;;;22.33;61.05
39449;BME280;25151;45.566;9.382;2022-10-16T08:21:23;100434.47;;;22.32;60.90
39449;BME280;25151;45.566;9.382;2022-10-16T08:24:23;100448.44;;;22.36;60.88
39449;BME280;25151;45.566;9.382;2022-10-16T08:27:24;100442.47;;;22.33;61.04
39449;BME280;25151;45.566;9.382;2022-10-16T08:30:24;100442.81;;;22.36;60.84
39449;BME280;25151;45.566;9.382;2022-10-16T08:33:25;100433.25;;;22.33;60.85
39449;BME280;25151;45.566;9.382;2022-10-16T08:36:26;100443.59;;;22.36;60.65
39449;BME280;25151;45.566;9.382;2022-10-16T08:39:26;100439.22;;;22.35;60.96
39449;BME280;25151;45.566;9.382;2022-10-16T08:46:21;100445.16;;;22.37;60.97
39449;BME280;25151;45.566;9.382;2022-10-16T08:49:29;100443.94;;;22.38;60.73
39449;BME280;25151;45.566;9.382;2022-10-16T08:52:33;100446.75;;;22.38;60.68
39449;BME280;25151;45.566;9.382;2022-10-16T08:55:43;100445.88;;;22.41;60.81
39449;BME280;25151;45.566;9.382;2022-10-16T08:58:46;100445.06;;;22.41;60.63
39449;BME280;25151;45.566;9.382;2022-10-16T09:01:50;100438.53;;;22.44;60.87
39449;BME280;25151;45.566;9.382;2022-10-16T09:06:04;100442.59;;;22.43;60.91
39449;BME280;25151;45.566;9.382;2022-10-16T09:08:58;100455.31;;;22.47;60.54
39449;BME280;25151;45.566;9.382;2022-10-16T09:12:20;100451.25;;;22.48;60.78
39449;BME280;25151;45.566;9.382;2022-10-16T09:15:39;100468.13;;;22.48;60.58
39449;BME280;25151;45.566;9.382;2022-10-16T09:21:45;100465.31;;;22.48;60.90
39449;BME280;25151;45.566;9.382;2022-10-16T09:24:45;100459.34;;;22.46;60.48
39449;BME280;25151;45.566;9.382;2022-10-16T09:27:52;100476.13;;;22.50;60.63
39449;BME280;25151;45.566;9.382;2022-10-16T09:30:53;100468.91;;;22.49;60.54
39449;BME280;25151;45.566;9.382;2022-10-16T09:33:58;100466.44;;;22.51;60.42
39449;BME280;25151;45.566;9.382;2022-10-16T09:37:03;100470.13;;;22.48;60.64
39449;BME280;25151;45.566;9.382;2022-10-16T09:40:05;100466.91;;;22.49;60.63
39449;BME280;25151;45.566;9.382;2022-10-16T09:43:32;100474.41;;;22.52;60.34
39449;BME280;25151;45.566;9.382;2022-10-16T09:46:37;100470.03;;;22.51;60.48
39449;BME280;25151;45.566;9.382;2022-10-16T09:49:54;100472.84;;;22.51;60.71
39449;BME280;25151;45.566;9.382;2022-10-16T09:53:05;100467.22;;;22.51;60.51
39449;BME280;25151;45.566;9.382;2022-10-16T09:56:06;100470.03;;;22.51;60.59
39449;BME280;25151;45.566;9.382;2022-10-16T09:59:18;100478.47;;;22.51;60.66
39449;BME280;25151;45.566;9.382;2022-10-16T10:05:31;100476.91;;;22.50;60.29
39449;BME280;25151;45.566;9.382;2022-10-16T10:08:32;100468.91;;;22.49;60.68
39449;BME280;25151;45.566;9.382;2022-10-16T10:11:39;100472.53;;;22.49;60.57
39449;BME280;25151;45.566;9.382;2022-10-16T10:14:46;100473.31;;;22.50;60.49
39449;BME280;25151;45.566;9.382;2022-10-16T10:17:53;100467.22;;;22.51;60.72
39449;BME280;25151;45.566;9.382;2022-10-16T10:20:59;100464.19;;;22.46;60.66
39449;BME280;25151;45.566;9.382;2022-10-16T10:24:00;100468.47;;;22.50;60.62
39449;BME280;25151;45.566;9.382;2022-10-16T10:27:31;100460.94;;;22.47;60.60
39449;BME280;25151;45.566;9.382;2022-10-16T10:33:58;100460.03;;;22.50;60.59
39449;BME280;25151;45.566;9.382;2022-10-16T11:07:11;100452.84;;;22.49;60.58
39449;BME280;25151;45.566;9.382;2022-10-16T11:10:23;100454.41;;;22.50;60.57
39449;BME280;25151;45.566;9.382;2022-10-16T11:13:29;100456.34;;;22.53;60.80
39449;BME280;25151;45.566;9.382;2022-10-16T11:16:36;100459.94;;;22.54;60.51
39449;BME280;25151;45.566;9.382;2022-10-16T11:19:44;100451.94;;;22.52;60.79
39449;BME280;25151;45.566;9.382;2022-10-16T11:22:56;100453.53;;;22.53;60.80
39449;BME280;25151;45.566;9.382;2022-10-16T11:26:04;100445.97;;;22.50;60.48
39449;BME280;25151;45.566;9.382;2022-10-16T11:29:14;100451.50;;;22.54;60.61
39449;BME280;25151;45.566;9.382;2022-10-16T11:32:27;100439.13;;;22.51;60.76
39449;BME280;25151;45.566;9.382;2022-10-16T11:35:39;100447.00;;;22.56;60.81
39449;BME280;25151;45.566;9.382;2022-10-16T11:39:14;100439.81;;;22.55;60.96
39449;BME280;25151;45.566;9.382;2022-10-16T11:42:41;100438.56;;;22.56;60.43
39449;BME280;25151;45.566;9.382;2022-10-16T11:45:50;100444.53;;;22.58;60.81
39449;BME280;25151;45.566;9.382;2022-10-16T11:49:25;100441.38;;;22.56;60.55
39449;BME280;25151;45.566;9.382;2022-10-16T11:52:40;100428.91;;;22.57;60.58
39449;BME280;25151;45.566;9.382;2022-10-16T11:55:44;100433.28;;;22.58;60.71
39449;BME280;25151;45.566;9.382;2022-10-16T12:08:34;100426.31;;;22.63;60.82
39449;BME280;25151;45.566;9.382;2022-10-16T12:11:38;100438.69;;;22.66;60.71
39449;BME280;25151;45.566;9.382;2022-10-16T12:14:39;100439.03;;;22.68;60.75
39449;BME280;25151;45.566;9.382;2022-10-16T12:17:40;100427.44;;;22.66;60.51
39449;BME280;25151;45.566;9.382;2022-10-16T12:20:40;100426.53;;;22.69;60.82
39449;BME280;25151;45.566;9.382;2022-10-16T12:23:51;100427.00;;;22.67;60.51
39449;BME280;25151;45.566;9.382;2022-10-16T12:26:53;100415.28;;;22.69;60.83
39449;BME280;25151;45.566;9.382;2022-10-16T12:29:56;100416.78;;;22.73;60.59
39449;BME280;25151;45.566;9.382;2022-10-16T12:33:00;100411.03;;;22.77;60.62
39449;BME280;25151;45.566;9.382;2022-10-16T12:36:05;100413.50;;;22.75;60.52
39449;BME280;25151;45.566;9.382;2022-10-16T12:39:23;100412.59;;;22.78;60.77
39449;BME280;25151;45.566;9.382;2022-10-16T12:45:34;100421.72;;;22.82;60.33
39449;BME280;25151;45.566;9.382;2022-10-16T12:48:36;100418.91;;;22.82;60.50
39449;BME280;25151;45.566;9.382;2022-10-16T12:51:38;100426.88;;;22.83;60.70
39449;BME280;25151;45.566;9.382;2022-10-16T12:54:40;100413.72;;;22.80;60.73
39449;BME280;25151;45.566;9.382;2022-10-16T13:01:04;100428.44;;;22.84;60.41
39449;BME280;25151;45.566;9.382;2022-10-16T13:04:18;100422.81;;;22.84;60.52
39449;BME280;25151;45.566;9.382;2022-10-16T13:10:37;100422.03;;;22.84;60.37
39449;BME280;25151;45.566;9.382;2022-10-16T13:31:21;100419.03;;;22.91;60.38
39449;BME280;25151;45.566;9.382;2022-10-16T13:34:22;100419.81;;;22.92;60.44
39449;BME280;25151;45.566;9.382;2022-10-16T13:37:26;100427.13;;;22.89;60.29
39449;BME280;25151;45.566;9.382;2022-10-16T13:40:27;100420.59;;;22.92;60.22
39449;BME280;25151;45.566;9.382;2022-10-16T13:46:29;100417.00;;;22.92;60.48
39449;BME280;25151;45.566;9.382;2022-10-16T13:49:34;100426.56;;;22.94;60.34
39449;BME280;25151;45.566;9.382;2022-10-16T13:52:35;100425.00;;;22.93;60.18
39449;BME280;25151;45.566;9.382;2022-10-16T13:55:35;100425.78;;;22.94;60.23
39449;BME280;25151;45.566;9.382;2022-10-16T13:58:36;100423.88;;;22.91;60.31
39449;BME280;25151;45.566;9.382;2022-10-16T14:01:42;100424.22;;;22.93;60.03
39449;BME280;25151;45.566;9.382;2022-10-16T14:04:43;100417.78;;;22.92;60.24
39449;BME280;25151;45.566;9.382;2022-10-16T14:07:49;100424.22;;;22.93;60.12
39449;BME280;25151;45.566;9.382;2022-10-16T14:10:53;100427.03;;;22.93;60.38
39449;BME280;25151;45.566;9.382;2022-10-16T14:13:56;100437.03;;;22.94;60.07
39449;BME280;25151;45.566;9.382;2022-10-16T14:16:57;100427.81;;;22.93;60.36
39449;BME280;25151;45.566;9.382;2022-10-16T14:19:59;100428.69;;;22.90;60.41
39449;BME280;25151;45.566;9.382;2022-10-16T14:23:50;100432.31;;;22.91;60.32
39449;BME280;25151;45.566;9.382;2022-10-16T14:26:27;100433.53;;;22.90;60.48
39449;BME280;25151;45.566;9.382;2022-10-16T14:29:29;100437.94;;;22.91;60.06
39449;BME280;25151;45.566;9.382;2022-10-16T14:32:35;100429.03;;;22.92;60.43
39449;BME280;25151;45.566;9.382;2022-10-16T14:35:38;100429.03;;;22.92;60.39
39449;BME280;25151;45.566;9.382;2022-10-16T14:38:49;100427.47;;;22.91;60.09
39449;BME280;25151;45.566;9.382;2022-10-16T14:41:56;100425.19;;;22.86;60.11
39449;BME280;25151;45.566;9.382;2022-10-16T14:44:58;100437.13;;;22.90;60.21
39449;BME280;25151;45.566;9.382;2022-10-16T14:48:03;100437.94;;;22.91;60.36
39449;BME280;25151;45.566;9.382;2022-10-16T14:51:12;100437.47;;;22.92;60.09
39449;BME280;25151;45.566;9.382;2022-10-16T14:54:16;100438.38;;;22.89;60.26
39449;BME280;25151;45.566;9.382;2022-10-16T14:57:24;100442.75;;;22.90;60.17
39449;BME280;25151;45.566;9.382;2022-10-16T15:00:27;100433.53;;;22.90;60.27
39449;BME280;25151;45.566;9.382;2022-10-16T15:03:28;100437.13;;;22.90;60.02
39449;BME280;25151;45.566;9.382;2022-10-16T15:06:28;100446.78;;;22.89;60.17
39449;BME280;25151;45.566;9.382;2022-10-16T15:09:29;100440.03;;;22.87;60.28
39449;BME280;25151;45.566;9.382;2022-10-16T15:12:30;100450.38;;;22.90;60.27
39449;BME280;25151;45.566;9.382;2022-10-16T15:15:44;100453.31;;;22.86;59.97
39449;BME280;25151;45.566;9.382;2022-10-16T15:18:45;100456.44;;;22.88;60.07
39449;BME280;25151;45.566;9.382;2022-10-16T15:21:47;100460.19;;;22.85;60.20
39449;BME280;25151;45.566;9.382;2022-10-16T15:24:49;100453.31;;;22.86;60.17
39449;BME280;25151;45.566;9.382;2022-10-16T15:27:49;100454.22;;;22.83;60.19
39449;BME280;25151;45.566;9.382;2022-10-16T15:30:55;100450.63;;;22.82;60.02
39449;BME280;25151;45.566;9.382;2022-10-16T15:33:56;100443.84;;;22.80;60.28
39449;BME280;25151;45.566;9.382;2022-10-16T15:37:04;100455.78;;;22.84;60.21
39449;BME280;25151;45.566;9.382;2022-10-16T15:40:05;100455.78;;;22.84;60.12
39449;BME280;25151;45.566;9.382;2022-10-16T15:43:07;100459.84;;;22.83;60.31
39449;BME280;25151;45.566;9.382;2022-10-16T15:46:11;100451.06;;;22.81;60.10
39449;BME280;25151;45.566;9.382;2022-10-16T15:49:14;100456.69;;;22.81;60.28
39449;BME280;25151;45.566;9.382;2022-10-16T15:52:15;100463.53;;;22.80;60.18
39449;BME280;25151;45.566;9.382;2022-10-16T15:55:16;100458.38;;;22.78;60.16
39449;BME280;25151;45.566;9.382;2022-10-16T15:58:18;100456.03;;;22.77;60.22
39449;BME280;25151;45.566;9.382;2022-10-16T16:01:19;100463.53;;;22.80;60.14
39449;BME280;25151;45.566;9.382;2022-10-16T16:04:20;100458.03;;;22.76;60.35
39449;BME280;25151;45.566;9.382;2022-10-16T16:07:20;100465.13;;;22.81;60.11
39449;BME280;25151;45.566;9.382;2022-10-16T16:10:21;100463.22;;;22.78;60.12
39449;BME280;25151;45.566;9.382;2022-10-16T16:13:22;100460.03;;;22.76;60.26
39449;BME280;25151;45.566;9.382;2022-10-16T16:16:22;100462.84;;;22.76;60.01
39449;BME280;25151;45.566;9.382;2022-10-16T16:19:23;100465.66;;;22.76;60.13
39449;BME280;25151;45.566;9.382;2022-10-16T16:22:24;100471.97;;;22.80;60.02
39449;BME280;25151;45.566;9.382;2022-10-16T16:25:27;100476.03;;;22.79;59.92
39449;BME280;25151;45.566;9.382;2022-10-16T16:28:28;100474.78;;;22.80;60.15
39449;BME280;25151;45.566;9.382;2022-10-16T16:31:30;100480.09;;;22.78;60.23
39449;BME280;25151;45.566;9.382;2022-10-16T16:34:31;100475.34;;;22.75;60.02
39449;BME280;25151;45.566;9.382;2022-10-16T16:37:32;100484.47;;;22.79;60.12
39449;BME280;25151;45.566;9.382;2022-10-16T16:40:33;100478.16;;;22.75;60.06
39449;BME280;25151;45.566;9.382;2022-10-16T16:43:33;100484.81;;;22.81;60.08
39449;BME280;25151;45.566;9.382;2022-10-16T16:46:34;100496.16;;;22.77;60.26
39449;BME280;25151;45.566;9.382;2022-10-16T16:49:35;100498.53;;;22.79;60.41
39449;BME280;25151;45.566;9.382;2022-10-16T16:52:36;100497.28;;;22.80;60.20
39449;BME280;25151;45.566;9.382;2022-10-16T16:55:36;100492.22;;;22.75;60.12
39449;BME280;25151;45.566;9.382;2022-10-16T16:58:37;100504.16;;;22.79;60.24
39449;BME280;25151;45.566;9.382;2022-10-16T17:01:38;100508.19;;;22.78;60.45
39449;BME280;25151;45.566;9.382;2022-10-16T17:04:39;100523.50;;;22.77;60.58
39449;BME280;25151;45.566;9.382;2022-10-16T17:07:40;100519.44;;;22.78;60.22
39449;BME280;25151;45.566;9.382;2022-10-16T17:10:44;100526.31;;;22.77;60.31
39449;BME280;25151;45.566;9.382;2022-10-16T17:13:45;100525.50;;;22.76;60.71
39449;BME280;25151;45.566;9.382;2022-10-16T17:16:46;100531.56;;;22.75;60.46
39449;BME280;25151;45.566;9.382;2022-10-16T17:19:52;100537.19;;;22.75;60.33
39449;BME280;25151;45.566;9.382;2022-10-16T17:22:52;100545.63;;;22.75;60.47
39449;BME280;25151;45.566;9.382;2022-10-16T17:25:53;100540.13;;;22.71;60.58
39449;BME280;25151;45.566;9.382;2022-10-16T17:28:56;100546.09;;;22.73;60.32
39449;BME280;25151;45.566;9.382;2022-10-16T17:31:57;100555.84;;;22.69;60.75
39449;BME280;25151;45.566;9.382;2022-10-16T17:34:58;100549.78;;;22.70;60.83
39449;BME280;25151;45.566;9.382;2022-10-16T17:37:59;100554.19;;;22.71;60.89
39449;BME280;25151;45.566;9.382;2022-10-16T17:41:12;100560.59;;;22.72;60.98